Terminal Aerodrome Forecast
Issued by NWS

Home | Current Version | Previous Version | Text Only | Print | Product List | Glossary On
Versions: 1 2 3 4 5 6 7 8 9 10 11 12 13 14 15 16
000
FTUS45 KABQ 240103 AAA
TAFROW
TAF AMD
KROW 240103Z 2401/2424 10010KT P6SM VCTS BKN090CB
      TEMPO 2401/2403 -TSRA BKN040CB
     FM240300 15012G22KT 4SM TSRA BR OVC025CB
     FM240900 17008KT 5SM BR VCSH SCT020 BKN050
     FM241500 19010KT P6SM SCT050
     FM242200 16015KT P6SM SKC=

USA.gov is the U.S. government's official web portal to all federal, state and local government web resources and services.